Time;durP1;ratioP1;P1;durP2;ratioP2;P2;SDS_P1;SDS_P2;PMS_P1;PMS_P2;Temp;Humidity;BMP_temperature;BMP_pressure;BME280_temperature;BME280_humidity;BME280_pressure;Samples;Min_cycle;Max_cycle;Signal;HPM_P1;HPM_P2
2021/10/05 00:01:46;;;;;;;12.65;6.88;;;12.20;99.90;;;;;;5020843;28;20449;-77
2021/10/05 00:04:12;;;;;;;8.70;6.95;;;12.20;99.90;;;;;;5020080;28;20093;-77
2021/10/05 00:06:37;;;;;;;7.97;7.18;;;12.20;99.90;;;;;;5020435;28;20450;-77
2021/10/05 00:09:03;;;;;;;6.63;5.90;;;12.20;99.90;;;;;;5010937;28;20110;-77
2021/10/05 00:11:30;;;;;;;15.35;6.60;;;12.20;99.90;;;;;;4999247;28;20087;-77
2021/10/05 00:13:56;;;;;;;7.50;6.10;;;12.20;99.90;;;;;;4998999;28;20044;-77
2021/10/05 00:16:22;;;;;;;7.50;6.70;;;12.20;99.90;;;;;;4993718;28;20038;-77
2021/10/05 00:18:49;;;;;;;9.05;6.57;;;12.20;99.90;;;;;;4998798;28;20029;-77
2021/10/05 00:21:16;;;;;;;8.48;6.20;;;12.20;99.90;;;;;;5002848;28;20022;-76
2021/10/05 00:23:41;;;;;;;8.02;5.97;;;12.10;99.90;;;;;;5020070;28;20090;-76
2021/10/05 00:26:07;;;;;;;8.70;7.75;;;12.10;99.90;;;;;;5013518;28;20088;-76
2021/10/05 00:28:33;;;;;;;8.45;6.93;;;12.00;99.90;;;;;;5025207;28;20481;-76
2021/10/05 00:30:59;;;;;;;6.63;5.65;;;12.00;99.90;;;;;;5024550;28;20045;-76
2021/10/05 00:33:25;;;;;;;8.95;6.18;;;11.90;99.90;;;;;;4997082;28;20030;-77
2021/10/05 00:35:50;;;;;;;7.25;6.30;;;12.00;99.90;;;;;;4992466;28;20030;-76
2021/10/05 00:38:16;;;;;;;9.68;6.10;;;12.00;99.90;;;;;;4994704;28;20486;-76
2021/10/05 00:40:42;;;;;;;6.40;5.80;;;12.00;99.90;;;;;;5012176;28;20037;-76
2021/10/05 00:43:08;;;;;;;6.53;5.93;;;12.00;99.90;;;;;;5015796;28;20026;-76
2021/10/05 00:45:39;;;;;;;6.95;6.20;;;12.00;99.90;;;;;;5014794;28;20036;-77
2021/10/05 00:48:05;;;;;;;7.10;6.40;;;11.90;99.90;;;;;;5016642;28;20022;-76
2021/10/05 00:50:31;;;;;;;9.65;6.70;;;11.90;99.90;;;;;;5012899;28;20038;-77
2021/10/05 00:52:57;;;;;;;8.30;7.00;;;12.00;99.90;;;;;;4991174;28;20049;-76
2021/10/05 00:55:24;;;;;;;8.60;6.78;;;12.00;99.90;;;;;;5010910;28;20053;-78
2021/10/05 00:57:51;;;;;;;12.48;8.32;;;11.90;99.90;;;;;;5008365;28;20078;-76
2021/10/05 01:00:17;;;;;;;8.82;6.78;;;11.90;99.90;;;;;;5015525;28;20022;-76
2021/10/05 01:02:44;;;;;;;9.07;6.97;;;12.00;99.90;;;;;;5013991;28;20363;-77
2021/10/05 01:05:10;;;;;;;8.05;6.20;;;11.90;99.90;;;;;;5015635;28;20116;-77
2021/10/05 01:07:35;;;;;;;7.28;5.47;;;12.00;99.90;;;;;;5011738;28;20491;-77
2021/10/05 01:10:02;;;;;;;9.60;5.90;;;12.00;99.90;;;;;;4998220;28;20018;-77
2021/10/05 01:12:28;;;;;;;8.60;7.32;;;11.90;99.90;;;;;;5015744;28;20033;-77
2021/10/05 01:14:54;;;;;;;9.68;8.45;;;11.90;99.90;;;;;;5015150;28;20034;-77
2021/10/05 01:17:20;;;;;;;9.18;7.07;;;11.90;99.90;;;;;;5014408;28;20033;-77
2021/10/05 01:19:45;;;;;;;7.22;5.72;;;11.80;99.90;;;;;;5010352;28;20018;-77
2021/10/05 01:22:11;;;;;;;6.63;5.75;;;11.80;99.90;;;;;;4989679;28;20068;-77
2021/10/05 01:24:37;;;;;;;6.43;5.13;;;11.90;99.90;;;;;;5006855;28;20375;-78
2021/10/05 01:27:04;;;;;;;6.30;4.93;;;11.90;99.90;;;;;;5007560;28;20475;-77
2021/10/05 01:29:31;;;;;;;5.93;4.95;;;12.00;99.90;;;;;;5003668;28;20134;-78
2021/10/05 01:32:00;;;;;;;7.47;5.50;;;12.00;99.90;;;;;;5015019;28;20029;-78
2021/10/05 01:34:26;;;;;;;5.97;5.38;;;12.10;99.90;;;;;;5016540;28;20034;-77
2021/10/05 01:36:53;;;;;;;7.28;5.03;;;12.10;99.90;;;;;;4997400;28;20387;-77
2021/10/05 01:39:39;;;;;;;5.13;4.03;;;12.10;99.90;;;;;;5014482;28;20049;-77
2021/10/05 01:42:10;;;;;;;4.75;4.25;;;12.10;99.90;;;;;;5016721;28;20038;-77
2021/10/05 01:44:37;;;;;;;6.15;4.97;;;12.20;99.90;;;;;;5015555;28;20034;-78
2021/10/05 01:47:05;;;;;;;9.48;8.07;;;12.20;99.90;;;;;;5017448;28;20172;-76
2021/10/05 01:49:31;;;;;;;8.68;7.78;;;12.20;99.90;;;;;;4991893;28;20081;-77
2021/10/05 01:51:56;;;;;;;13.68;9.98;;;12.20;99.90;;;;;;5006164;28;20098;-76
2021/10/05 01:54:23;;;;;;;13.88;9.63;;;12.20;99.90;;;;;;4990233;28;20056;-76
2021/10/05 01:56:49;;;;;;;11.95;9.10;;;12.10;99.90;;;;;;4981866;28;20028;-77
2021/10/05 01:59:15;;;;;;;13.98;11.02;;;12.10;99.90;;;;;;4998055;28;20034;-77
2021/10/05 02:01:41;;;;;;;13.25;9.63;;;12.10;99.90;;;;;;4995949;28;20030;-78
2021/10/05 02:04:08;;;;;;;11.63;9.35;;;12.10;99.90;;;;;;4995813;28;20402;-80
2021/10/05 02:06:35;;;;;;;13.43;10.98;;;12.00;99.90;;;;;;4996227;28;20231;-77
2021/10/05 02:09:01;;;;;;;14.48;10.73;;;12.00;99.90;;;;;;4995161;28;20022;-77
2021/10/05 02:11:26;;;;;;;12.75;10.45;;;12.00;99.90;;;;;;4996445;28;20030;-77
2021/10/05 02:13:52;;;;;;;14.70;12.02;;;11.90;99.90;;;;;;4996385;28;20026;-77
2021/10/05 02:16:18;;;;;;;14.07;11.18;;;11.90;99.90;;;;;;5009444;28;20128;-77
2021/10/05 02:18:46;;;;;;;11.93;9.50;;;11.90;99.90;;;;;;4997369;28;20022;-77
2021/10/05 02:21:16;;;;;;;13.68;11.68;;;11.90;99.90;;;;;;5009510;28;20034;-77
2021/10/05 02:26:26;;;;;;;9.25;8.25;;;11.90;99.90;;;;;;5003758;28;20053;-77
2021/10/05 02:28:52;;;;;;;9.15;8.20;;;11.90;99.90;;;;;;4997884;28;20310;-77
2021/10/05 02:31:18;;;;;;;13.93;11.25;;;11.90;99.90;;;;;;4994880;28;20034;-77
2021/10/05 02:33:43;;;;;;;11.73;9.30;;;11.90;99.90;;;;;;5021957;28;20033;-78
2021/10/05 02:36:09;;;;;;;14.30;11.63;;;11.80;99.90;;;;;;5021192;28;20087;-77
2021/10/05 02:38:35;;;;;;;14.10;10.55;;;11.80;99.90;;;;;;5014890;28;20030;-78
2021/10/05 02:41:01;;;;;;;11.18;8.70;;;11.80;99.90;;;;;;4985136;28;20038;-77
2021/10/05 02:43:27;;;;;;;12.05;9.48;;;11.80;99.90;;;;;;4997600;28;20081;-78
2021/10/05 02:45:52;;;;;;;15.02;10.68;;;11.90;99.90;;;;;;5014600;28;20026;-76
2021/10/05 02:48:18;;;;;;;14.45;11.00;;;11.90;99.90;;;;;;5013758;28;20044;-76
2021/10/05 02:50:44;;;;;;;13.13;10.38;;;11.80;99.90;;;;;;5001567;28;20034;-76
2021/10/05 02:53:09;;;;;;;17.45;12.93;;;11.80;99.90;;;;;;5003688;28;20088;-77
2021/10/05 02:55:35;;;;;;;16.52;13.00;;;11.80;99.90;;;;;;5012385;28;20025;-78
2021/10/05 02:58:01;;;;;;;14.52;11.18;;;11.80;99.90;;;;;;5013966;28;20029;-77
2021/10/05 03:00:26;;;;;;;20.02;13.88;;;11.80;99.90;;;;;;5001663;28;20073;-77
2021/10/05 03:02:52;;;;;;;17.23;12.32;;;11.80;99.90;;;;;;4993751;28;20034;-78
2021/10/05 03:05:18;;;;;;;17.08;11.48;;;11.80;99.90;;;;;;5013370;28;20445;-77
2021/10/05 03:07:44;;;;;;;13.85;11.80;;;11.80;99.90;;;;;;5013395;28;20041;-78
2021/10/05 03:10:10;;;;;;;13.82;11.05;;;11.70;99.90;;;;;;5009182;28;20026;-77
2021/10/05 03:12:35;;;;;;;12.68;10.50;;;11.70;99.90;;;;;;5011584;28;20479;-77
2021/10/05 03:15:01;;;;;;;15.30;10.77;;;11.60;99.90;;;;;;5013744;28;20487;-77
2021/10/05 03:17:27;;;;;;;13.93;10.35;;;11.60;99.90;;;;;;4996840;28;20023;-77
2021/10/05 03:19:53;;;;;;;11.55;9.90;;;11.70;99.90;;;;;;4997381;28;20484;-77
2021/10/05 03:22:18;;;;;;;12.60;10.95;;;11.80;99.90;;;;;;5003038;28;20022;-77
2021/10/05 03:24:44;;;;;;;16.17;12.85;;;11.80;99.90;;;;;;4997981;28;20026;-77
2021/10/05 03:27:13;;;;;;;13.38;11.23;;;11.80;99.90;;;;;;4997193;28;20455;-77
2021/10/05 03:29:39;;;;;;;12.02;10.15;;;11.80;99.90;;;;;;4977820;28;20088;-77
2021/10/05 03:32:06;;;;;;;11.15;9.65;;;11.90;99.90;;;;;;4995092;28;20438;-78
2021/10/05 03:34:32;;;;;;;10.48;8.30;;;11.90;99.90;;;;;;4994460;28;20034;-77
2021/10/05 03:36:58;;;;;;;8.88;7.15;;;11.90;99.90;;;;;;4975917;28;20423;-76
2021/10/05 03:39:23;;;;;;;12.02;10.43;;;11.90;99.90;;;;;;4993591;28;20046;-77
2021/10/05 03:41:49;;;;;;;15.98;11.90;;;12.00;99.90;;;;;;4994221;28;20030;-77
2021/10/05 03:44:15;;;;;;;14.52;11.50;;;11.90;99.90;;;;;;4994318;28;20455;-77
2021/10/05 03:46:41;;;;;;;13.93;12.05;;;11.90;99.90;;;;;;4994123;28;20096;-77
2021/10/05 03:49:07;;;;;;;13.00;10.82;;;11.80;99.90;;;;;;4988300;28;21789;-77
2021/10/05 03:51:33;;;;;;;12.95;10.25;;;11.80;99.90;;;;;;5001127;28;20113;-78
2021/10/05 03:53:59;;;;;;;11.40;9.68;;;11.80;99.90;;;;;;4987856;28;20027;-77
2021/10/05 03:56:24;;;;;;;13.40;10.85;;;11.90;99.90;;;;;;4992700;28;20054;-77
2021/10/05 03:58:50;;;;;;;15.35;11.80;;;11.90;99.90;;;;;;4997613;28;20645;-77
2021/10/05 04:01:16;;;;;;;13.98;9.75;;;11.90;99.90;;;;;;5012674;28;20022;-77
2021/10/05 04:03:42;;;;;;;16.52;13.30;;;11.90;99.90;;;;;;5008162;28;20022;-77
2021/10/05 04:06:09;;;;;;;16.63;12.43;;;12.00;99.90;;;;;;4992546;28;20034;-77
2021/10/05 04:08:35;;;;;;;14.45;12.25;;;12.00;99.90;;;;;;4996961;28;20076;-77
2021/10/05 04:11:01;;;;;;;12.05;9.95;;;12.00;99.90;;;;;;5011277;28;20041;-77
2021/10/05 04:13:27;;;;;;;11.23;9.43;;;12.00;99.90;;;;;;4994279;28;20026;-77
2021/10/05 04:15:53;;;;;;;13.05;10.98;;;12.00;99.90;;;;;;5011051;28;20167;-77
2021/10/05 04:18:20;;;;;;;13.65;11.18;;;12.00;99.90;;;;;;4993524;28;20033;-78
2021/10/05 04:20:46;;;;;;;13.38;11.18;;;12.10;99.90;;;;;;5000313;28;20030;-77
2021/10/05 04:23:12;;;;;;;13.25;10.68;;;12.00;99.90;;;;;;5004570;28;20407;-77
2021/10/05 04:25:38;;;;;;;14.25;11.25;;;12.00;99.90;;;;;;4993166;28;20081;-77
2021/10/05 04:28:04;;;;;;;13.20;11.02;;;12.00;99.90;;;;;;4974306;28;20085;-77
2021/10/05 04:30:30;;;;;;;13.32;11.15;;;12.00;99.90;;;;;;4999969;28;20474;-77
2021/10/05 04:32:56;;;;;;;12.77;10.38;;;12.00;99.90;;;;;;4981319;28;20034;-77
2021/10/05 04:35:22;;;;;;;12.45;9.85;;;12.00;99.90;;;;;;4954959;28;20396;-77
2021/10/05 04:37:47;;;;;;;10.45;8.65;;;12.00;99.90;;;;;;4981853;28;20022;-77
2021/10/05 04:40:14;;;;;;;16.20;11.85;;;12.00;99.90;;;;;;4992895;28;20029;-77
2021/10/05 04:42:40;;;;;;;17.25;12.25;;;12.10;99.90;;;;;;4992113;28;20030;-77
2021/10/05 04:45:07;;;;;;;13.95;10.90;;;12.00;99.90;;;;;;4992193;28;20354;-76
2021/10/05 04:47:35;;;;;;;13.07;10.68;;;12.00;99.90;;;;;;4991641;28;20037;-76
2021/10/05 04:50:05;;;;;;;11.20;9.02;;;12.00;99.90;;;;;;4994458;28;20461;-77
2021/10/05 04:52:30;;;;;;;12.45;9.05;;;12.00;99.90;;;;;;5002165;28;20018;-77
2021/10/05 04:54:56;;;;;;;14.00;10.98;;;12.00;99.90;;;;;;4999453;28;20040;-78
2021/10/05 04:57:22;;;;;;;12.60;10.52;;;12.00;99.90;;;;;;5010526;28;20101;-77
2021/10/05 04:59:48;;;;;;;18.02;12.70;;;12.00;99.90;;;;;;5010959;28;20076;-78
2021/10/05 05:02:13;;;;;;;15.00;11.50;;;12.00;99.90;;;;;;5009239;28;20106;-77
2021/10/05 05:04:39;;;;;;;15.85;12.93;;;12.00;99.90;;;;;;5010374;28;20034;-77
2021/10/05 05:07:05;;;;;;;14.25;10.38;;;12.00;99.90;;;;;;4974617;28;20030;-77
2021/10/05 05:09:31;;;;;;;11.10;8.70;;;12.00;99.90;;;;;;4991642;28;20102;-77
2021/10/05 05:11:57;;;;;;;10.45;8.32;;;12.00;99.90;;;;;;5008953;28;20030;-77
2021/10/05 05:14:22;;;;;;;17.35;12.40;;;12.00;99.90;;;;;;5011286;28;20026;-77
2021/10/05 05:16:48;;;;;;;15.07;11.73;;;12.00;99.90;;;;;;5010064;28;20057;-77
2021/10/05 05:19:14;;;;;;;13.02;10.52;;;12.00;99.90;;;;;;5009001;28;20026;-77
2021/10/05 05:21:40;;;;;;;15.02;10.85;;;12.00;99.90;;;;;;4998507;28;20387;-77
2021/10/05 05:24:06;;;;;;;15.30;11.23;;;12.00;99.90;;;;;;4999778;28;20128;-77
2021/10/05 05:26:32;;;;;;;17.27;12.27;;;12.00;99.90;;;;;;5010904;28;20486;-77
2021/10/05 05:28:58;;;;;;;19.45;12.98;;;12.00;99.90;;;;;;5012499;28;20382;-78
2021/10/05 05:31:24;;;;;;;19.42;13.02;;;12.10;99.90;;;;;;4982902;28;20035;-77
2021/10/05 05:33:49;;;;;;;17.13;12.93;;;12.00;99.90;;;;;;4995050;28;20026;-77
2021/10/05 05:36:15;;;;;;;20.73;14.43;;;12.00;99.90;;;;;;4977191;28;20026;-77
2021/10/05 05:38:41;;;;;;;18.95;14.23;;;12.00;99.90;;;;;;4995222;28;20022;-77
2021/10/05 05:41:07;;;;;;;19.77;14.23;;;12.00;99.90;;;;;;4975047;28;20538;-77
2021/10/05 05:43:33;;;;;;;24.48;14.40;;;12.00;99.90;;;;;;4980052;28;20500;-78
2021/10/05 05:46:00;;;;;;;19.40;13.93;;;12.00;99.90;;;;;;4996497;28;20442;-78
2021/10/05 05:48:25;;;;;;;19.65;13.60;;;12.00;99.90;;;;;;4986468;28;20124;-78
2021/10/05 05:50:51;;;;;;;18.92;12.82;;;11.90;99.90;;;;;;5038771;23;20065;-81
2021/10/05 05:53:18;;;;;;;21.35;12.98;;;11.90;99.90;;;;;;5034599;28;20033;-81
2021/10/05 05:55:44;;;;;;;17.95;12.27;;;11.90;99.90;;;;;;5007240;28;20029;-81
2021/10/05 05:58:15;;;;;;;16.50;12.20;;;11.90;99.90;;;;;;5006816;28;20033;-81
2021/10/05 06:00:45;;;;;;;17.10;12.50;;;11.90;99.90;;;;;;5022135;28;20018;-82
2021/10/05 06:03:11;;;;;;;16.63;11.55;;;11.90;99.90;;;;;;5008056;28;20122;-80
2021/10/05 06:05:38;;;;;;;15.02;11.88;;;11.90;99.90;;;;;;5004720;28;20030;-81
2021/10/05 06:08:04;;;;;;;16.35;11.95;;;11.90;99.90;;;;;;5003477;28;20030;-81
2021/10/05 06:10:30;;;;;;;15.35;11.43;;;12.00;99.90;;;;;;5015948;28;20027;-78
2021/10/05 06:12:56;;;;;;;13.02;9.73;;;12.00;99.90;;;;;;5018596;28;20022;-78
2021/10/05 06:15:23;;;;;;;14.93;10.50;;;12.10;99.90;;;;;;5018544;28;20037;-82
2021/10/05 06:17:50;;;;;;;13.38;10.98;;;12.10;99.90;;;;;;5015765;28;20094;-79
2021/10/05 06:20:20;;;;;;;16.30;11.25;;;12.10;99.90;;;;;;4992639;28;20076;-82
2021/10/05 06:22:48;;;;;;;17.17;11.35;;;12.20;99.90;;;;;;5020542;28;20125;-81
2021/10/05 06:25:17;;;;;;;15.15;10.35;;;12.20;99.90;;;;;;5015115;28;20414;-81
2021/10/05 06:27:44;;;;;;;14.82;10.75;;;12.20;99.90;;;;;;5018921;28;20461;-81
2021/10/05 06:30:12;;;;;;;13.13;10.60;;;12.20;99.90;;;;;;5008536;28;20029;-81
2021/10/05 06:32:38;;;;;;;13.50;9.48;;;12.20;99.90;;;;;;4983445;28;20061;-82
2021/10/05 06:35:05;;;;;;;12.85;9.65;;;12.10;99.90;;;;;;5003226;28;20031;-81
2021/10/05 06:37:31;;;;;;;16.90;11.27;;;12.20;99.90;;;;;;4983888;28;20029;-81
2021/10/05 06:39:57;;;;;;;15.00;10.50;;;12.20;99.90;;;;;;5002070;28;20395;-83
2021/10/05 06:42:23;;;;;;;14.27;10.10;;;12.20;99.90;;;;;;4983393;28;20037;-80
2021/10/05 06:44:49;;;;;;;13.38;9.73;;;12.20;99.90;;;;;;5003667;28;20022;-82
2021/10/05 06:47:15;;;;;;;14.80;10.55;;;12.20;99.90;;;;;;5005041;28;20451;-83
2021/10/05 06:49:41;;;;;;;14.60;10.50;;;12.30;99.90;;;;;;5021827;28;20030;-81
2021/10/05 06:52:07;;;;;;;12.50;9.63;;;12.30;99.90;;;;;;5018769;28;20026;-80
2021/10/05 06:54:33;;;;;;;13.32;9.02;;;12.40;99.90;;;;;;5021737;28;20040;-82
2021/10/05 06:56:59;;;;;;;14.60;8.95;;;12.40;99.90;;;;;;5004534;28;20058;-81
2021/10/05 06:59:25;;;;;;;11.45;8.45;;;12.40;99.90;;;;;;5022308;28;20033;-82
2021/10/05 07:01:51;;;;;;;10.95;8.38;;;12.50;99.90;;;;;;5016214;28;20077;-81
2021/10/05 07:04:17;;;;;;;10.27;7.72;;;12.50;99.90;;;;;;4984507;28;20117;-82
2021/10/05 07:06:44;;;;;;;10.45;7.00;;;12.60;99.90;;;;;;4985184;28;20038;-80
2021/10/05 07:09:10;;;;;;;7.60;6.30;;;12.60;99.90;;;;;;4989717;28;20027;-80
2021/10/05 07:11:36;;;;;;;11.07;7.72;;;12.70;99.90;;;;;;4994666;28;20041;-79
2021/10/05 07:14:02;;;;;;;10.25;6.07;;;12.70;99.90;;;;;;5027755;28;20030;-81
2021/10/05 07:16:28;;;;;;;13.27;8.35;;;12.70;99.90;;;;;;5024525;28;20101;-81
2021/10/05 07:18:54;;;;;;;10.73;7.75;;;12.80;99.90;;;;;;5023812;28;20030;-81
2021/10/05 07:21:22;;;;;;;9.15;6.32;;;12.80;99.90;;;;;;5000407;28;20023;-81
2021/10/05 07:23:49;;;;;;;9.25;6.55;;;12.90;99.90;;;;;;5023549;28;20026;-80
2021/10/05 07:26:16;;;;;;;10.32;6.43;;;13.00;99.90;;;;;;5001959;28;20026;-78
2021/10/05 07:28:45;;;;;;;8.45;5.60;;;13.10;99.90;;;;;;5028106;28;20028;-82
2021/10/05 07:31:12;;;;;;;9.90;7.22;;;13.30;99.90;;;;;;5028317;28;20018;-81
2021/10/05 07:33:37;;;;;;;9.35;7.45;;;13.50;99.90;;;;;;5000475;28;20030;-81
2021/10/05 07:36:03;;;;;;;8.63;6.85;;;13.60;99.90;;;;;;5008873;28;20091;-79
2021/10/05 07:38:29;;;;;;;9.35;7.07;;;13.70;99.90;;;;;;5018490;28;20407;-80
2021/10/05 07:40:55;;;;;;;7.57;6.28;;;13.70;99.90;;;;;;5010954;28;20041;-83
2021/10/05 07:43:21;;;;;;;6.60;5.85;;;13.60;99.90;;;;;;5028455;28;20045;-81
2021/10/05 07:45:47;;;;;;;8.43;6.97;;;13.60;99.90;;;;;;5028085;28;20097;-82
2021/10/05 07:48:14;;;;;;;9.20;6.00;;;13.50;99.90;;;;;;5027134;28;20026;-82
2021/10/05 07:50:40;;;;;;;7.68;5.50;;;13.50;99.90;;;;;;5023846;28;20044;-82
2021/10/05 07:53:06;;;;;;;8.25;5.15;;;13.60;99.90;;;;;;5018013;28;20030;-81
2021/10/05 07:55:32;;;;;;;6.10;4.70;;;13.80;99.90;;;;;;4997179;28;20045;-81
2021/10/05 07:58:00;;;;;;;6.32;4.75;;;14.00;99.90;;;;;;5024479;28;20030;-82
2021/10/05 08:00:26;;;;;;;6.38;5.70;;;14.00;99.90;;;;;;5024693;28;20030;-82
2021/10/05 08:02:52;;;;;;;5.85;5.05;;;14.10;99.90;;;;;;4993089;28;20121;-82
2021/10/05 08:05:19;;;;;;;6.05;4.35;;;14.20;99.90;;;;;;5020618;28;20030;-82
2021/10/05 08:07:46;;;;;;;7.25;4.75;;;14.40;99.90;;;;;;5006325;28;20065;-82
2021/10/05 08:10:13;;;;;;;5.25;4.07;;;14.40;99.90;;;;;;5020555;28;20025;-82
2021/10/05 08:12:40;;;;;;;6.05;4.53;;;14.40;99.90;;;;;;5020976;28;20124;-82
2021/10/05 08:15:07;;;;;;;5.20;4.40;;;14.30;99.90;;;;;;5016783;28;20073;-82
2021/10/05 08:17:33;;;;;;;5.45;3.90;;;14.30;99.90;;;;;;4999746;28;20486;-82
2021/10/05 08:19:58;;;;;;;6.00;4.28;;;14.20;99.90;;;;;;5003373;28;20018;-81
2021/10/05 08:22:24;;;;;;;4.82;3.47;;;14.20;99.90;;;;;;5016528;28;20037;-81
2021/10/05 08:24:50;;;;;;;4.70;4.18;;;14.10;99.90;;;;;;5003129;28;20095;-82
2021/10/05 08:27:16;;;;;;;3.10;2.75;;;14.00;99.90;;;;;;4994679;28;20032;-82
2021/10/05 08:29:42;;;;;;;6.05;3.67;;;14.00;99.90;;;;;;5018895;28;20088;-82
2021/10/05 08:32:09;;;;;;;3.70;3.25;;;13.90;99.90;;;;;;5010255;28;20137;-79
2021/10/05 08:34:36;;;;;;;4.28;3.30;;;13.90;99.90;;;;;;4996458;28;20034;-82
2021/10/05 08:37:02;;;;;;;3.85;3.45;;;13.90;99.90;;;;;;5001370;28;20021;-81
2021/10/05 08:39:28;;;;;;;3.55;3.13;;;14.00;99.90;;;;;;5020086;28;20504;-81
2021/10/05 08:41:53;;;;;;;4.50;3.63;;;14.10;99.90;;;;;;5019831;28;20112;-83
2021/10/05 08:44:22;;;;;;;5.25;3.55;;;14.10;99.90;;;;;;5001627;28;20064;-82
2021/10/05 08:46:48;;;;;;;4.75;3.30;;;14.20;99.90;;;;;;5020075;28;20026;-81
2021/10/05 08:49:14;;;;;;;3.53;3.20;;;14.20;99.90;;;;;;5001563;28;20470;-80
2021/10/05 08:51:40;;;;;;;4.88;3.63;;;14.20;99.90;;;;;;5017532;28;20040;-82
2021/10/05 08:54:09;;;;;;;3.95;3.17;;;14.10;99.90;;;;;;5022419;28;20501;-81
2021/10/05 08:56:35;;;;;;;5.97;3.03;;;14.20;99.90;;;;;;5012895;28;20082;-84
2021/10/05 08:59:01;;;;;;;3.33;3.00;;;14.10;99.90;;;;;;5020567;28;20133;-82
2021/10/05 09:01:33;;;;;;;4.53;3.00;;;14.20;99.90;;;;;;5015392;28;20027;-79
2021/10/05 09:03:59;;;;;;;5.57;3.70;;;14.30;99.90;;;;;;5013239;28;20482;-82
2021/10/05 09:06:25;;;;;;;6.18;4.50;;;14.20;99.90;;;;;;5008757;28;20038;-81
2021/10/05 09:08:55;;;;;;;4.57;4.18;;;14.30;99.90;;;;;;5010762;28;20022;-81
2021/10/05 09:11:27;;;;;;;5.90;4.43;;;14.30;99.90;;;;;;5025985;28;20367;-83
2021/10/05 09:13:56;;;;;;;6.60;4.67;;;14.30;99.90;;;;;;5003639;28;20483;-82
2021/10/05 09:16:31;;;;;;;4.45;3.90;;;14.40;99.90;;;;;;5006088;28;20014;-82
2021/10/05 09:19:10;;;;;;;6.07;4.75;;;14.50;99.90;;;;;;5003966;28;20030;-81
2021/10/05 09:21:52;;;;;;;5.20;4.65;;;14.50;99.90;;;;;;4993027;28;20047;-83
2021/10/05 09:24:32;;;;;;;5.32;4.05;;;14.50;99.90;;;;;;5005533;28;20041;-82
2021/10/05 09:26:59;;;;;;;6.47;5.05;;;14.40;99.90;;;;;;5004042;28;20019;-82
2021/10/05 09:29:34;;;;;;;7.38;4.63;;;14.50;99.90;;;;;;5004554;28;20037;-81
2021/10/05 09:32:02;;;;;;;8.38;4.28;;;14.50;99.90;;;;;;4998199;28;20029;-82
2021/10/05 09:34:50;;;;;;;5.50;3.42;;;14.60;99.90;;;;;;5023565;28;20085;-82
2021/10/05 09:37:26;;;;;;;4.78;3.38;;;14.80;99.90;;;;;;5026044;28;20026;-81
2021/10/05 09:40:12;;;;;;;5.82;4.50;;;15.20;99.90;;;;;;5006568;28;20023;-81
2021/10/05 09:42:39;;;;;;;4.43;3.70;;;15.60;99.50;;;;;;5026113;28;20505;-83
2021/10/05 09:45:09;;;;;;;4.63;3.60;;;15.60;99.10;;;;;;5018632;28;20105;-82
2021/10/05 09:47:38;;;;;;;4.93;3.92;;;15.40;99.00;;;;;;5023136;28;20092;-82
2021/10/05 09:50:28;;;;;;;3.40;3.10;;;15.20;99.20;;;;;;5013458;28;20037;-81
2021/10/05 09:52:58;;;;;;;3.33;3.03;;;15.10;99.80;;;;;;5005878;28;20030;-82
2021/10/05 09:55:27;;;;;;;6.57;3.90;;;15.20;99.90;;;;;;5020871;28;20576;-82
2021/10/05 09:57:53;;;;;;;4.82;3.30;;;15.40;99.50;;;;;;5021957;28;20041;-83
2021/10/05 10:00:21;;;;;;;2.97;2.70;;;15.50;97.90;;;;;;5023063;28;20022;-83
2021/10/05 10:02:49;;;;;;;3.47;2.95;;;15.50;98.10;;;;;;4991750;28;20026;-83
2021/10/05 10:05:17;;;;;;;3.72;3.42;;;15.50;97.00;;;;;;5024888;28;20037;-80
2021/10/05 10:07:45;;;;;;;3.47;3.17;;;15.50;97.10;;;;;;5024701;28;20507;-83
2021/10/05 10:10:18;;;;;;;3.25;2.95;;;15.80;97.00;;;;;;5000053;28;20487;-82
2021/10/05 10:12:51;;;;;;;3.20;2.90;;;16.30;95.40;;;;;;5004032;28;20094;-82
2021/10/05 10:15:18;;;;;;;3.97;3.00;;;16.90;93.00;;;;;;4986423;28;20368;-83
2021/10/05 10:17:44;;;;;;;2.50;2.30;;;17.20;91.30;;;;;;5006844;28;20030;-80
2021/10/05 10:20:24;;;;;;;4.70;3.17;;;17.20;91.70;;;;;;5032525;28;20022;-80
2021/10/05 10:22:51;;;;;;;3.33;2.60;;;17.10;90.40;;;;;;4998303;28;20092;-83
2021/10/05 10:25:27;;;;;;;3.80;3.10;;;16.90;91.40;;;;;;5024182;28;20100;-83
2021/10/05 10:27:58;;;;;;;3.45;3.08;;;16.80;91.70;;;;;;5023596;28;20414;-82
2021/10/05 10:30:28;;;;;;;6.00;5.13;;;16.60;91.30;;;;;;5023959;28;20022;-83
2021/10/05 10:33:03;;;;;;;3.67;3.38;;;16.50;91.90;;;;;;4996102;28;20031;-83
2021/10/05 10:35:30;;;;;;;3.35;2.83;;;16.30;92.60;;;;;;4998454;28;20019;-81
2021/10/05 10:37:57;;;;;;;4.45;3.47;;;16.20;92.80;;;;;;4972601;28;20129;-81
2021/10/05 10:40:35;;;;;;;5.82;3.67;;;16.30;92.30;;;;;;4996526;28;20027;-81
2021/10/05 10:43:15;;;;;;;4.38;3.97;;;16.30;92.60;;;;;;5013399;28;20045;-80
2021/10/05 10:45:47;;;;;;;4.35;3.95;;;16.30;92.00;;;;;;5023317;28;20018;-79
2021/10/05 10:48:24;;;;;;;3.72;3.42;;;16.20;92.60;;;;;;5014892;28;20026;-82
2021/10/05 10:50:50;;;;;;;3.97;3.25;;;16.00;92.90;;;;;;5021181;28;20088;-82
2021/10/05 10:53:15;;;;;;;3.20;3.00;;;16.00;92.60;;;;;;5012560;28;20023;-83
2021/10/05 10:55:44;;;;;;;4.30;3.08;;;15.80;93.00;;;;;;5007322;28;20420;-79
2021/10/05 10:58:13;;;;;;;3.85;3.42;;;15.70;93.20;;;;;;4987969;28;20065;-84
2021/10/05 11:00:49;;;;;;;4.63;4.30;;;15.50;93.80;;;;;;5006530;28;20037;-81
2021/10/05 11:03:25;;;;;;;3.88;3.50;;;15.40;94.30;;;;;;5013836;28;20088;-82
2021/10/05 11:05:51;;;;;;;4.43;4.03;;;15.40;94.20;;;;;;5027909;28;20030;-82
2021/10/05 11:08:16;;;;;;;3.97;3.38;;;15.50;94.10;;;;;;4993021;28;20034;-80
2021/10/05 11:10:42;;;;;;;3.90;3.45;;;15.70;94.40;;;;;;5011121;28;20069;-81
2021/10/05 11:13:08;;;;;;;3.17;2.80;;;15.90;93.50;;;;;;5015087;28;20053;-80
2021/10/05 11:15:45;;;;;;;3.22;2.47;;;15.90;93.00;;;;;;5030497;28;20029;-82
2021/10/05 11:18:13;;;;;;;3.70;3.35;;;16.00;93.10;;;;;;5029575;28;20021;-84
2021/10/05 11:20:51;;;;;;;5.35;3.90;;;16.00;92.60;;;;;;5018967;28;20019;-82
2021/10/05 11:23:20;;;;;;;4.35;3.47;;;16.00;92.20;;;;;;4991523;28;20026;-83
2021/10/05 11:25:48;;;;;;;3.40;2.95;;;16.00;92.20;;;;;;5008469;28;20030;-80
2021/10/05 11:28:16;;;;;;;7.28;3.05;;;16.00;92.40;;;;;;5011880;28;20056;-80
2021/10/05 11:30:53;;;;;;;3.55;3.13;;;15.90;92.00;;;;;;5015185;28;20022;-79
2021/10/05 11:33:27;;;;;;;3.97;2.85;;;15.80;92.20;;;;;;5010872;28;20133;-84
2021/10/05 11:35:55;;;;;;;4.25;3.55;;;15.70;92.70;;;;;;5022069;28;20025;-82
2021/10/05 11:38:21;;;;;;;3.63;3.33;;;15.60;92.80;;;;;;5021143;28;20014;-82
2021/10/05 11:41:01;;;;;;;2.75;2.53;;;15.50;93.30;;;;;;5005945;28;20098;-83
2021/10/05 11:43:42;;;;;;;4.20;3.20;;;15.40;93.80;;;;;;5026401;28;20018;-81
2021/10/05 11:46:14;;;;;;;3.85;3.55;;;15.40;94.10;;;;;;5033511;28;20081;-79
2021/10/05 11:48:41;;;;;;;;;;;15.40;93.30;;;;;;5030514;28;20022;-80
2021/10/05 11:51:08;;;;;;;3.75;2.95;;;15.30;93.40;;;;;;5040985;23;20019;-79
2021/10/05 11:53:35;;;;;;;5.45;3.05;;;15.20;94.00;;;;;;5033239;28;20453;-79
2021/10/05 11:56:10;;;;;;;2.83;2.53;;;15.20;94.00;;;;;;5008270;28;20045;-80
2021/10/05 11:58:50;;;;;;;6.53;4.68;;;15.10;94.40;;;;;;5009639;28;20025;-80
2021/10/05 12:01:23;;;;;;;5.13;3.95;;;15.00;94.60;;;;;;5001837;28;20022;-79
2021/10/05 12:03:51;;;;;;;3.67;3.38;;;15.00;95.00;;;;;;5003549;28;20042;-80
2021/10/05 12:06:31;;;;;;;5.43;4.00;;;15.00;95.40;;;;;;5020864;28;20026;-79
2021/10/05 12:08:58;;;;;;;4.25;3.20;;;15.10;95.30;;;;;;5022815;28;20030;-79
2021/10/05 12:11:39;;;;;;;2.50;2.30;;;15.20;95.30;;;;;;5020738;28;20053;-80
2021/10/05 12:14:06;;;;;;;3.53;3.22;;;15.70;95.00;;;;;;5024351;28;20032;-79
2021/10/05 12:16:31;;;;;;;2.72;2.53;;;16.30;93.40;;;;;;5022565;28;20021;-80
2021/10/05 12:19:00;;;;;;;4.78;3.10;;;16.70;92.20;;;;;;5027581;28;20028;-79
2021/10/05 12:21:27;;;;;;;2.70;2.45;;;17.20;90.60;;;;;;5019421;28;20013;-79
2021/10/05 12:23:56;;;;;;;4.80;3.10;;;17.40;87.40;;;;;;5034354;28;20026;-80
2021/10/05 12:26:22;;;;;;;3.30;2.97;;;17.30;86.90;;;;;;5031349;28;20117;-80
2021/10/05 12:28:54;;;;;;;3.88;2.22;;;17.20;87.30;;;;;;5032065;28;20046;-79
2021/10/05 12:31:20;;;;;;;5.30;2.67;;;16.90;88.50;;;;;;5024029;28;20038;-80
2021/10/05 12:34:00;;;;;;;3.38;3.08;;;16.70;89.90;;;;;;5022246;28;20034;-80
2021/10/05 12:36:32;;;;;;;3.28;2.65;;;16.50;90.10;;;;;;5022150;28;20077;-81
2021/10/05 12:39:08;;;;;;;2.45;1.75;;;16.60;90.10;;;;;;5026804;28;20120;-79
2021/10/05 12:41:38;;;;;;;1.25;1.20;;;16.70;90.60;;;;;;5026577;28;20103;-79
2021/10/05 12:44:14;;;;;;;2.13;1.92;;;17.00;90.60;;;;;;5026017;28;20037;-79
2021/10/05 12:46:40;;;;;;;2.95;2.60;;;17.20;89.20;;;;;;5027061;28;20064;-78